createdAt,value
2018-11-03T16:57:00.292Z,12.97
2018-11-03T16:59:29.762Z,12.97
2018-11-03T17:01:59.749Z,13.10
2018-11-03T17:04:29.270Z,11.93
2018-11-03T17:06:58.981Z,11.43
2018-11-03T17:09:28.658Z,13.00
2018-11-03T17:11:58.415Z,11.27
2018-11-03T17:14:28.663Z,8.70
2018-11-03T17:16:58.943Z,8.60
2018-11-03T17:19:29.020Z,9.88
2018-11-03T17:21:59.018Z,10.43
2018-11-03T17:24:28.421Z,9.00
2018-11-03T17:26:58.483Z,11.52
2018-11-03T17:29:27.993Z,8.55
2018-11-03T17:31:57.476Z,10.25
2018-11-03T17:34:27.218Z,7.75
2018-11-03T17:36:57.617Z,7.25
2018-11-03T17:39:27.582Z,8.65
2018-11-03T17:41:58.212Z,10.25
2018-11-03T17:44:28.976Z,7.90
2018-11-03T17:46:59.445Z,8.05
2018-11-03T17:49:29.554Z,9.32
2018-11-03T17:51:59.433Z,11.27
2018-11-03T17:54:28.784Z,12.00
2018-11-03T17:56:58.473Z,14.00
2018-11-03T17:59:28.210Z,12.43
2018-11-03T18:01:58.027Z,7.72
2018-11-03T18:04:27.418Z,6.12
2018-11-03T18:06:57.074Z,10.10
2018-11-03T18:09:26.573Z,9.45
2018-11-03T18:11:57.292Z,9.13
2018-11-03T18:14:27.323Z,7.95
2018-11-03T18:16:56.817Z,10.77
2018-11-03T18:19:27.888Z,9.52
2018-11-03T18:21:57.570Z,7.53
2018-11-03T18:24:28.259Z,7.15
2018-11-03T18:26:58.918Z,9.02
2018-11-03T18:29:29.286Z,9.32
2018-11-03T18:31:59.207Z,8.32
2018-11-03T18:34:28.514Z,8.40
2018-11-03T18:36:59.386Z,8.30
2018-11-03T18:39:29.049Z,7.72
2018-11-03T18:41:58.583Z,9.80
2018-11-03T18:44:28.627Z,7.90
2018-11-03T18:46:59.436Z,8.10
2018-11-03T18:49:30.088Z,7.95
2018-11-03T18:51:59.686Z,10.05
2018-11-03T18:54:29.495Z,5.57
2018-11-03T18:56:59.142Z,8.35
2018-11-03T18:59:28.652Z,10.70
2018-11-03T19:01:58.351Z,8.10
2018-11-03T19:04:27.512Z,9.05
2018-11-03T19:06:57.145Z,8.38
2018-11-03T19:09:26.749Z,11.23
2018-11-03T19:11:56.309Z,9.23
2018-11-03T19:14:25.931Z,8.15
2018-11-03T19:16:57.884Z,8.27
2018-11-03T19:19:27.623Z,7.45
2018-11-03T19:21:57.217Z,11.15
2018-11-03T19:24:26.927Z,7.50
2018-11-03T19:26:57.577Z,7.45
2018-11-03T19:29:27.832Z,7.95
2018-11-03T19:31:58.788Z,8.68
2018-11-03T19:34:28.199Z,9.45
2018-11-03T19:36:57.745Z,6.97
2018-11-03T19:39:27.291Z,10.18
2018-11-03T19:41:56.895Z,7.68
2018-11-03T19:44:28.123Z,8.15
2018-11-03T19:46:57.734Z,8.10
2018-11-03T19:49:28.278Z,5.97
2018-11-03T19:51:58.632Z,5.43
2018-11-03T19:54:28.342Z,8.82
2018-11-03T19:56:57.609Z,6.78
2018-11-03T19:59:27.249Z,7.03
2018-11-03T20:01:58.194Z,7.57
2018-11-03T20:04:27.532Z,8.60
2018-11-03T20:06:57.045Z,7.43
2018-11-03T20:09:26.566Z,7.22
2018-11-03T20:11:55.909Z,8.30
2018-11-03T20:14:25.659Z,8.45
2018-11-03T20:16:56.790Z,8.35
2018-11-03T20:19:27.529Z,7.87
2018-11-03T20:21:56.959Z,6.32
2018-11-03T20:24:26.381Z,8.63
2018-11-03T20:26:56.066Z,9.30
2018-11-03T20:29:26.367Z,8.13
2018-11-03T20:31:56.799Z,8.13
2018-11-03T20:34:26.361Z,6.72
2018-11-03T20:36:55.961Z,7.97
2018-11-03T20:39:25.504Z,8.20
2018-11-03T20:41:55.492Z,6.53
2018-11-03T20:44:25.079Z,7.43
2018-11-03T20:46:54.663Z,10.65
2018-11-03T20:49:27.343Z,8.30
2018-11-03T20:51:56.858Z,8.25
2018-11-03T20:54:27.353Z,7.12
2018-11-03T20:56:57.648Z,8.23
2018-11-03T20:59:27.373Z,6.72
2018-11-03T21:01:59.352Z,8.77
2018-11-03T21:04:29.842Z,8.00
2018-11-03T21:06:59.691Z,7.10
2018-11-03T21:09:30.535Z,7.78
2018-11-03T21:12:01.517Z,7.30
2018-11-03T21:14:34.026Z,7.70
2018-11-03T21:17:05.910Z,6.55
2018-11-03T21:19:37.458Z,5.87
2018-11-03T21:22:10.845Z,6.37
2018-11-03T21:24:40.259Z,7.60
2018-11-03T21:27:11.376Z,5.37
2018-11-03T21:29:40.889Z,5.50
2018-11-03T21:32:10.639Z,5.15
2018-11-03T21:34:40.486Z,4.22
2018-11-03T21:37:10.076Z,4.47
2018-11-03T21:39:39.763Z,6.07
2018-11-03T21:42:09.476Z,5.32
2018-11-03T21:44:39.545Z,4.25
2018-11-03T21:47:09.073Z,6.85
2018-11-03T21:49:39.204Z,4.25
2018-11-03T21:52:08.756Z,6.45
2018-11-03T21:54:38.350Z,5.95
2018-11-03T21:57:07.801Z,4.45
2018-11-03T21:59:38.098Z,5.40
2018-11-03T22:02:08.630Z,5.32
2018-11-03T22:04:39.473Z,5.65
2018-11-03T22:07:09.477Z,4.12
2018-11-03T22:09:40.352Z,3.47
2018-11-03T22:12:11.894Z,4.40
2018-11-03T22:14:41.867Z,6.20
2018-11-03T22:17:12.033Z,3.12
2018-11-03T22:19:41.999Z,3.75
2018-11-03T22:22:11.668Z,4.28
2018-11-03T22:24:43.094Z,4.95
2018-11-03T22:27:13.549Z,5.28
2018-11-03T22:29:43.051Z,4.80
2018-11-03T22:32:15.776Z,4.93
2018-11-03T22:34:45.575Z,4.50
2018-11-03T22:37:16.045Z,3.85
2018-11-03T22:39:46.089Z,4.28
2018-11-03T22:42:15.543Z,3.30
2018-11-03T22:44:45.371Z,4.43
2018-11-03T22:47:15.288Z,4.50
2018-11-03T22:49:45.457Z,4.95
2018-11-03T22:52:15.091Z,5.75
2018-11-03T22:54:44.668Z,5.07
2018-11-03T22:57:14.129Z,2.75
2018-11-03T22:59:44.098Z,4.12
2018-11-03T23:02:14.634Z,5.37
2018-11-03T23:04:44.406Z,3.62
2018-11-03T23:07:14.230Z,3.90
2018-11-03T23:09:43.995Z,3.55
2018-11-03T23:12:13.448Z,4.57
2018-11-03T23:14:42.937Z,3.65
2018-11-03T23:17:12.865Z,4.50
2018-11-03T23:19:42.741Z,4.40
2018-11-03T23:22:12.538Z,2.28
2018-11-03T23:24:41.902Z,5.53
2018-11-03T23:27:11.695Z,4.10
2018-11-03T23:29:41.642Z,4.55
2018-11-03T23:32:11.453Z,4.37
2018-11-03T23:34:41.140Z,3.03
2018-11-03T23:37:10.753Z,3.83
2018-11-03T23:39:41.255Z,4.72
2018-11-03T23:42:10.725Z,5.55
2018-11-03T23:44:40.210Z,4.55
2018-11-03T23:47:10.119Z,5.45
2018-11-03T23:49:40.878Z,4.75
2018-11-03T23:52:10.749Z,6.07
2018-11-03T23:54:40.746Z,8.63
2018-11-03T23:57:11.416Z,5.25
2018-11-03T23:59:42.364Z,4.80
